createdAt,value
2017-10-19T00:00:44.876Z,8.83
2017-10-19T00:03:10.646Z,9.50
2017-10-19T00:05:36.439Z,7.97
2017-10-19T00:08:02.258Z,9.10
2017-10-19T00:10:28.031Z,8.13
2017-10-19T00:12:53.771Z,8.50
2017-10-19T00:15:19.558Z,8.30
2017-10-19T00:17:45.311Z,8.80
2017-10-19T00:20:11.052Z,8.60
2017-10-19T00:22:37.038Z,8.03
2017-10-19T00:25:02.807Z,8.10
2017-10-19T00:27:28.612Z,8.73
2017-10-19T00:29:54.349Z,8.60
2017-10-19T00:32:20.127Z,8.57
2017-10-19T00:34:45.950Z,8.80
2017-10-19T00:37:11.763Z,9.40
2017-10-19T00:39:37.611Z,8.83
2017-10-19T00:42:03.470Z,7.97
2017-10-19T00:44:29.269Z,8.93
2017-10-19T00:46:55.094Z,9.40
2017-10-19T00:49:20.980Z,9.90
2017-10-19T00:51:46.782Z,9.23
2017-10-19T00:54:12.625Z,9.37
2017-10-19T00:56:38.391Z,8.60
2017-10-19T00:59:04.179Z,9.37
2017-10-19T01:01:29.985Z,9.13
2017-10-19T01:03:55.731Z,9.00
2017-10-19T01:06:21.500Z,9.07
2017-10-19T01:08:47.264Z,10.47
2017-10-19T01:11:13.026Z,9.73
2017-10-19T01:13:38.784Z,9.63
2017-10-19T01:16:04.563Z,10.23
2017-10-19T01:18:30.330Z,9.87
2017-10-19T01:20:56.117Z,9.23
2017-10-19T01:23:21.901Z,8.73
2017-10-19T01:25:47.679Z,10.13
2017-10-19T01:28:13.471Z,10.20
2017-10-19T01:30:39.232Z,9.63
2017-10-19T01:33:05.016Z,8.97
2017-10-19T01:35:30.797Z,9.10
2017-10-19T01:37:56.567Z,9.20
2017-10-19T01:40:22.359Z,9.20
2017-10-19T01:42:48.140Z,9.20
2017-10-19T01:45:13.904Z,9.57
2017-10-19T01:47:39.691Z,10.23
2017-10-19T01:50:05.453Z,9.73
2017-10-19T01:52:31.255Z,9.97
2017-10-19T01:54:57.014Z,8.70
2017-10-19T01:57:22.795Z,8.33
2017-10-19T01:59:48.573Z,9.60
2017-10-19T02:02:14.325Z,9.47
2017-10-19T02:04:40.112Z,9.40
2017-10-19T02:07:05.892Z,9.13
2017-10-19T02:09:31.635Z,11.70
2017-10-19T02:11:57.427Z,10.40
2017-10-19T02:14:23.213Z,10.50
2017-10-19T02:16:48.988Z,10.10
2017-10-19T02:19:14.754Z,10.57
2017-10-19T02:21:40.507Z,9.50
2017-10-19T02:24:06.255Z,10.77
2017-10-19T02:26:31.994Z,11.40
2017-10-19T02:28:57.762Z,12.67
2017-10-19T02:31:23.501Z,13.20
2017-10-19T02:33:49.283Z,13.83
2017-10-19T02:36:15.080Z,12.40
2017-10-19T02:38:40.816Z,12.87
2017-10-19T02:41:06.573Z,13.90
2017-10-19T02:43:32.326Z,12.77
2017-10-19T02:45:58.072Z,14.00
2017-10-19T02:48:23.890Z,14.33
2017-10-19T02:50:49.648Z,14.07
2017-10-19T02:53:15.411Z,15.37
2017-10-19T02:55:41.196Z,13.80
2017-10-19T02:58:06.954Z,14.67
2017-10-19T03:00:32.747Z,15.00
2017-10-19T03:02:58.503Z,13.90
2017-10-19T03:05:24.275Z,13.27
2017-10-19T03:07:50.047Z,15.07
2017-10-19T03:10:15.854Z,14.70
2017-10-19T03:12:41.635Z,15.50
2017-10-19T03:15:07.414Z,13.57
2017-10-19T03:17:33.179Z,14.87
2017-10-19T03:19:58.938Z,15.37
2017-10-19T03:22:24.724Z,15.43
2017-10-19T03:24:50.470Z,16.57
2017-10-19T03:27:16.236Z,17.50
2017-10-19T03:29:42.019Z,14.10
2017-10-19T03:32:07.783Z,15.87
2017-10-19T03:34:33.538Z,16.97
2017-10-19T03:36:59.307Z,15.13
2017-10-19T03:39:25.059Z,15.33
2017-10-19T03:41:50.828Z,14.27
2017-10-19T03:44:16.614Z,15.73
2017-10-19T03:46:42.359Z,14.70
2017-10-19T03:49:08.124Z,17.10
2017-10-19T03:51:33.928Z,17.50
2017-10-19T03:53:59.693Z,14.37
2017-10-19T03:56:25.458Z,14.37
2017-10-19T03:58:51.219Z,14.57
2017-10-19T04:01:16.991Z,15.77
2017-10-19T04:03:42.767Z,13.63
2017-10-19T04:06:08.512Z,16.93
2017-10-19T04:08:34.290Z,14.60
2017-10-19T04:11:00.024Z,15.53
2017-10-19T04:13:25.795Z,16.03
2017-10-19T04:15:51.564Z,16.43
2017-10-19T04:18:17.327Z,15.80
2017-10-19T04:20:43.110Z,16.70
2017-10-19T04:23:08.904Z,14.10
2017-10-19T04:25:34.658Z,16.53
2017-10-19T04:28:00.403Z,17.30
2017-10-19T04:30:26.187Z,18.47
2017-10-19T04:32:52.011Z,16.70
2017-10-19T04:35:17.764Z,16.50
2017-10-19T04:37:43.602Z,16.77
2017-10-19T04:40:09.367Z,16.90
2017-10-19T04:42:35.124Z,16.97
2017-10-19T04:45:00.933Z,16.53
2017-10-19T04:47:26.686Z,16.57
2017-10-19T04:49:52.466Z,16.00
2017-10-19T04:52:18.277Z,15.50
2017-10-19T04:54:44.039Z,16.90
2017-10-19T04:57:09.788Z,17.30
2017-10-19T04:59:35.569Z,16.87
2017-10-19T05:02:01.341Z,17.80
2017-10-19T05:04:27.666Z,17.50
2017-10-19T05:06:53.444Z,15.68
2017-10-19T05:09:19.207Z,14.37
2017-10-19T05:11:45.003Z,17.23
2017-10-19T05:14:10.760Z,16.13
2017-10-19T05:16:36.531Z,16.07
2017-10-19T05:19:02.319Z,18.70
2017-10-19T05:21:28.096Z,19.17
2017-10-19T05:23:53.869Z,16.07
2017-10-19T05:26:19.643Z,15.57
2017-10-19T05:28:45.396Z,16.03
2017-10-19T05:31:11.140Z,16.70
2017-10-19T05:33:36.915Z,15.93
2017-10-19T05:36:02.694Z,16.37
2017-10-19T05:38:28.438Z,16.20
2017-10-19T05:40:54.175Z,15.50
2017-10-19T05:43:19.944Z,16.80
2017-10-19T05:45:45.695Z,15.13
2017-10-19T05:48:11.471Z,15.30
2017-10-19T05:50:37.230Z,15.47
2017-10-19T05:53:02.977Z,14.97
2017-10-19T05:55:28.763Z,14.37
2017-10-19T05:57:54.512Z,15.30
2017-10-19T06:00:20.300Z,15.30
2017-10-19T06:02:46.082Z,15.83
2017-10-19T06:05:11.839Z,13.70
2017-10-19T06:07:37.574Z,14.40
2017-10-19T06:10:03.364Z,15.00
2017-10-19T06:12:29.107Z,15.10
2017-10-19T06:14:54.869Z,15.93
2017-10-19T06:17:31.860Z,16.03
2017-10-19T06:19:57.624Z,15.95
2017-10-19T06:22:24.625Z,17.67
2017-10-19T06:24:50.564Z,15.70
2017-10-19T06:27:16.407Z,16.00
2017-10-19T06:29:42.182Z,16.13
2017-10-19T06:32:07.938Z,16.23
2017-10-19T06:34:33.695Z,14.77
2017-10-19T06:36:59.443Z,15.07
2017-10-19T06:39:25.227Z,15.83
2017-10-19T06:41:50.991Z,14.80
2017-10-19T06:44:16.759Z,15.70
2017-10-19T06:46:42.520Z,15.13
2017-10-19T06:49:08.258Z,15.03
2017-10-19T06:51:34.050Z,13.30
2017-10-19T06:53:59.802Z,14.10
2017-10-19T06:56:25.579Z,12.80
2017-10-19T06:58:51.351Z,13.13
2017-10-19T07:01:17.099Z,12.37
2017-10-19T07:03:42.879Z,13.60
2017-10-19T07:06:08.664Z,16.07
2017-10-19T07:08:34.438Z,16.20
2017-10-19T07:11:00.223Z,14.23
2017-10-19T07:13:25.999Z,15.00
2017-10-19T07:15:51.744Z,13.93
2017-10-19T07:18:17.528Z,14.80
2017-10-19T07:20:43.295Z,14.13
2017-10-19T07:23:09.095Z,14.10
2017-10-19T07:25:34.881Z,14.83
2017-10-19T07:28:00.643Z,15.03
2017-10-19T07:30:26.412Z,13.63
2017-10-19T07:32:52.196Z,14.63
2017-10-19T07:35:17.967Z,17.90
2017-10-19T07:37:43.720Z,14.43
2017-10-19T07:40:09.479Z,13.40
2017-10-19T07:42:35.250Z,13.90
2017-10-19T07:45:00.999Z,15.77
2017-10-19T07:47:26.772Z,14.80
2017-10-19T07:49:52.543Z,13.93
2017-10-19T07:52:18.310Z,15.23
2017-10-19T07:55:07.791Z,14.30
2017-10-19T07:58:05.333Z,12.20
2017-10-19T08:01:03.192Z,13.87
2017-10-19T08:04:01.027Z,12.85
2017-10-19T08:06:58.703Z,13.77
2017-10-19T08:16:07.039Z,15.00
2017-10-19T08:18:56.660Z,17.60
2017-10-19T08:21:54.209Z,16.43
2017-10-19T08:24:51.259Z,17.90
2017-10-19T08:37:35.664Z,15.93
2017-10-19T08:40:25.472Z,12.77
2017-10-19T08:43:23.307Z,15.73
2017-10-19T08:46:20.307Z,16.70
2017-10-19T08:59:07.415Z,17.93
2017-10-19T09:01:56.980Z,18.10
2017-10-19T09:04:54.965Z,16.97
2017-10-19T09:20:45.012Z,12.67
2017-10-19T09:23:34.684Z,13.87
2017-10-19T09:26:31.623Z,14.97
2017-10-19T09:29:28.366Z,13.60
2017-10-19T09:32:26.104Z,15.50
2017-10-19T09:42:15.983Z,13.77
2017-10-19T10:01:51.984Z,8.47
2017-10-19T10:20:59.853Z,5.97
2017-10-19T10:23:57.831Z,6.30
2017-10-19T10:26:23.600Z,6.50
2017-10-19T10:29:13.108Z,7.97
2017-10-19T10:32:10.975Z,7.37
2017-10-19T10:48:01.207Z,5.50
2017-10-19T10:50:51.119Z,5.40
2017-10-19T10:53:48.696Z,5.90
2017-10-19T10:56:45.535Z,4.80
2017-10-19T10:59:43.131Z,5.30
2017-10-19T11:02:40.287Z,6.00
2017-10-19T11:11:48.162Z,4.77
2017-10-19T11:14:37.064Z,4.57
2017-10-19T11:17:34.671Z,4.63
2017-10-19T11:20:32.348Z,5.40
2017-10-19T11:23:29.184Z,4.63
2017-10-19T11:33:19.024Z,4.00
2017-10-19T11:36:08.723Z,4.53
2017-10-19T11:39:06.326Z,5.20
2017-10-19T11:42:03.907Z,5.00
2017-10-19T11:54:46.059Z,6.70
2017-10-19T11:57:35.719Z,5.43
2017-10-19T12:00:33.468Z,5.17
2017-10-19T12:03:30.331Z,5.17
2017-10-19T12:06:27.178Z,4.33
2017-10-19T12:09:24.520Z,5.00
2017-10-19T12:18:31.844Z,8.10
2017-10-19T12:21:21.104Z,7.60
2017-10-19T12:24:17.945Z,8.37
2017-10-19T12:27:14.884Z,5.47
2017-10-19T12:30:12.550Z,7.70
2017-10-19T12:33:10.289Z,7.10
2017-10-19T12:42:17.273Z,4.93
2017-10-19T13:01:51.018Z,5.20
2017-10-19T13:04:16.784Z,4.03
2017-10-19T13:23:51.985Z,4.77
2017-10-19T13:26:17.760Z,4.23
2017-10-19T13:45:50.620Z,3.40
2017-10-19T13:48:16.383Z,3.83
2017-10-19T13:51:05.618Z,3.73
2017-10-19T13:54:03.334Z,3.70
2017-10-19T13:57:00.198Z,4.33
2017-10-19T13:59:56.919Z,4.20
2017-10-19T14:02:54.571Z,3.57
2017-10-19T14:05:52.233Z,4.50
2017-10-19T14:08:49.884Z,3.73
2017-10-19T14:11:15.619Z,4.23
2017-10-19T14:14:04.955Z,4.07
2017-10-19T14:17:02.623Z,5.90
2017-10-19T14:20:00.355Z,5.97
2017-10-19T14:32:44.663Z,3.80
2017-10-19T14:35:34.287Z,6.10
2017-10-19T14:38:31.607Z,6.70
2017-10-19T14:57:42.019Z,7.57
2017-10-19T15:00:39.579Z,6.00
2017-10-19T15:16:28.544Z,6.60
2017-10-19T15:19:17.403Z,6.90
2017-10-19T15:22:14.420Z,7.03
2017-10-19T15:41:22.274Z,6.17
2017-10-19T15:44:19.616Z,6.53
2017-10-19T15:47:16.364Z,6.47
2017-10-19T15:50:13.622Z,6.10
2017-10-19T15:53:10.768Z,6.63
2017-10-19T16:12:19.260Z,7.33
2017-10-19T16:15:16.970Z,6.90
2017-10-19T16:18:14.772Z,6.83
2017-10-19T16:21:12.207Z,6.80
2017-10-19T16:24:20.092Z,6.53
2017-10-19T16:27:09.703Z,6.93
2017-10-19T16:46:20.951Z,7.20
2017-10-19T17:05:56.479Z,10.67
2017-10-19T17:08:22.268Z,7.97
2017-10-19T17:28:09.501Z,8.10
2017-10-19T17:30:35.308Z,8.27
2017-10-19T17:50:16.750Z,7.80
2017-10-19T17:52:42.588Z,7.83
2017-10-19T17:55:32.005Z,8.20
2017-10-19T17:58:29.806Z,8.73
2017-10-19T18:01:27.444Z,7.60
2017-10-19T18:04:25.165Z,7.37
2017-10-19T18:14:14.432Z,21.03
2017-10-19T18:17:03.283Z,11.00
2017-10-19T18:20:00.213Z,8.67
2017-10-19T18:22:58.123Z,9.20
2017-10-19T18:42:22.062Z,8.77
2017-10-19T18:45:19.788Z,7.83
2017-10-19T18:48:17.527Z,8.00
2017-10-19T18:51:14.091Z,8.30
2017-10-19T18:54:11.871Z,7.77
2017-10-19T18:57:08.749Z,9.03
2017-10-19T19:16:18.552Z,8.70
2017-10-19T19:19:15.793Z,7.33
2017-10-19T19:21:41.540Z,8.20
2017-10-19T19:41:18.255Z,11.50
2017-10-19T19:43:44.024Z,11.50
2017-10-19T19:46:33.627Z,11.10
2017-10-19T19:49:31.381Z,11.70
2017-10-19T19:52:29.235Z,10.50
2017-10-19T19:55:26.115Z,10.93
2017-10-19T20:05:15.099Z,10.07
2017-10-19T20:08:04.867Z,9.63
2017-10-19T20:11:01.600Z,9.97
2017-10-19T20:26:52.540Z,9.93
2017-10-19T20:29:42.087Z,9.70
2017-10-19T20:32:39.620Z,10.50
2017-10-19T20:51:48.848Z,9.07
2017-10-19T21:10:59.803Z,9.40
2017-10-19T21:13:49.531Z,11.07
2017-10-19T21:16:46.442Z,10.20
2017-10-19T21:19:43.195Z,10.90
2017-10-19T21:22:39.974Z,9.15
2017-10-19T21:25:37.796Z,8.60
2017-10-19T21:28:34.883Z,7.82
2017-10-19T21:34:22.031Z,8.70
2017-10-19T21:37:11.807Z,8.83
2017-10-19T21:56:37.396Z,6.10
2017-10-19T22:16:13.327Z,10.95
2017-10-19T22:35:20.477Z,9.95
2017-10-19T22:38:17.616Z,10.60
2017-10-19T22:57:27.147Z,9.85
2017-10-19T23:00:24.628Z,10.75
2017-10-19T23:02:50.407Z,9.95
2017-10-19T23:05:39.652Z,9.20
2017-10-19T23:08:36.403Z,8.95
2017-10-19T23:11:33.513Z,8.80
2017-10-19T23:24:20.605Z,7.90
2017-10-19T23:27:10.062Z,8.60
2017-10-19T23:30:08.127Z,7.65
2017-10-19T23:33:05.965Z,8.20
2017-10-19T23:36:03.835Z,8.93
2017-10-19T23:45:53.483Z,7.93
2017-10-19T23:48:43.105Z,8.70
